Station Historical Data
Daily Summary for January 20, 2012 Units:  Both    English   Metric
« Previous Day
Next Day »
Daily Weekly Monthly Yearly Custom
  High: Low: Average:
Temperature: 62.4 °F /  16.9 °C 45.8 °F /  7.7 °C 54.1 °F /  12.3 °C
Dew Point: 61.0 °F /  16.1 °C 38.2 °F /  3.4 °C 50.2 °F /  10.1 °C
Humidity: 95% 64% 87%
Wind Speed: 13.0mph /  20.9km/h - 4.3mph /  6.9km/h
Wind Gust: 16.0mph /  25.7km/h - -
Wind- - ESE
Pressure: 30.01 in /  1016.1 hPa 29.82 in /  1009.7 hPa -
Precipitation: 0.01 in /  0.25 mm    
Historical Graphs
 
 
Tabular Data for January 20, 2012
Time Temperature Dew Point Pressure Wind Wind Speed Wind Gust Humidity Rainfall Rate (Hourly) Conditions
00:00 49.7 °F /  9.8 °C 40.3 °F /  4.6 °C 30.00in /  1015.8hPa East 1.0mph /  1.6km/h 2.0mph /  3.2km/h 70% 0.00in /  0mm
00:01 49.7 °F /  9.8 °C 40.3 °F /  4.6 °C 30.00in /  1015.8hPa East 1.0mph /  1.6km/h 2.0mph /  3.2km/h 70% 0.00in /  0mm
00:06 49.5 °F /  9.7 °C 39.4 °F /  4.1 °C 30.00in /  1015.8hPa East 2.0mph /  3.2km/h 2.0mph /  3.2km/h 68% 0.00in /  0mm
00:11 49.6 °F /  9.8 °C 39.5 °F /  4.2 °C 30.00in /  1015.8hPa ESE 4.0mph /  6.4km/h 4.0mph /  6.4km/h 68% 0.00in /  0mm
00:16 49.7 °F /  9.8 °C 39.2 °F /  4 °C 30.00in /  1015.8hPa ESE 4.0mph /  6.4km/h 4.0mph /  6.4km/h 67% 0.00in /  0mm
00:21 49.9 °F /  9.9 °C 39.0 °F /  3.9 °C 30.00in /  1015.8hPa ESE 1.0mph /  1.6km/h 3.0mph /  4.8km/h 66% 0.00in /  0mm
00:26 50.0 °F /  10 °C 39.1 °F /  3.9 °C 30.00in /  1015.8hPa ESE 1.0mph /  1.6km/h 2.0mph /  3.2km/h 66% 0.00in /  0mm
00:31 50.0 °F /  10 °C 39.1 °F /  3.9 °C 30.00in /  1015.8hPa East 1.0mph /  1.6km/h 2.0mph /  3.2km/h 66% 0.00in /  0mm
00:36 50.0 °F /  10 °C 38.7 °F /  3.7 °C 30.00in /  1015.8hPa East 2.0mph /  3.2km/h 2.0mph /  3.2km/h 65% 0.00in /  0mm
00:41 50.1 °F /  10.1 °C 38.8 °F /  3.8 °C 30.00in /  1015.8hPa East 2.0mph /  3.2km/h 2.0mph /  3.2km/h 65% 0.00in /  0mm
00:46 50.1 °F /  10.1 °C 38.4 °F /  3.6 °C 30.00in /  1015.8hPa East 2.0mph /  3.2km/h 3.0mph /  4.8km/h 64% 0.00in /  0mm
00:51 50.1 °F /  10.1 °C 39.2 °F /  4 °C 30.00in /  1015.8hPa ENE 1.0mph /  1.6km/h 1.0mph /  1.6km/h 66% 0.00in /  0mm
00:56 49.8 °F /  9.9 °C 39.7 °F /  4.3 °C 30.00in /  1015.8hPa ENE 1.0mph /  1.6km/h 2.0mph /  3.2km/h 68% 0.00in /  0mm
01:01 49.3 °F /  9.6 °C 39.9 °F /  4.4 °C 30.00in /  1015.8hPa ENE 1.0mph /  1.6km/h 2.0mph /  3.2km/h 70% 0.00in /  0mm
01:06 49.2 °F /  9.6 °C 39.1 °F /  3.9 °C 30.00in /  1015.8hPa ENE 1.0mph /  1.6km/h 1.0mph /  1.6km/h 68% 0.00in /  0mm
01:11 49.5 °F /  9.7 °C 38.6 °F /  3.7 °C 30.00in /  1015.8hPa ENE 2.0mph /  3.2km/h 2.0mph /  3.2km/h 66% 0.00in /  0mm
01:16 49.6 °F /  9.8 °C 38.7 °F /  3.7 °C 30.00in /  1015.8hPa East 1.0mph /  1.6km/h 2.0mph /  3.2km/h 66% 0.00in /  0mm
01:21 49.7 °F /  9.8 °C 38.8 °F /  3.8 °C 30.00in /  1015.8hPa East 1.0mph /  1.6km/h 2.0mph /  3.2km/h 66% 0.00in /  0mm
01:26 49.6 °F /  9.8 °C 39.5 °F /  4.2 °C 30.00in /  1015.8hPa Calm   1.0mph /  1.6km/h 68% 0.00in /  0mm
01:31 49.4 °F /  9.7 °C 38.9 °F /  3.8 °C 30.00in /  1015.8hPa East 1.0mph /  1.6km/h 2.0mph /  3.2km/h 67% 0.00in /  0mm
01:36 49.6 °F /  9.8 °C 38.3 °F /  3.5 °C 30.00in /  1015.8hPa East 2.0mph /  3.2km/h 2.0mph /  3.2km/h 65% 0.00in /  0mm
01:41 49.9 °F /  9.9 °C 38.2 °F /  3.4 °C 30.00in /  1015.8hPa East 1.0mph /  1.6km/h 3.0mph /  4.8km/h 64% 0.00in /  0mm
01:46 50.0 °F /  10 °C 38.7 °F /  3.7 °C 30.00in /  1015.8hPa ENE 2.0mph /  3.2km/h 2.0mph /  3.2km/h 65% 0.00in /  0mm
01:51 50.0 °F /  10 °C 38.7 °F /  3.7 °C 30.00in /  1015.8hPa East 2.0mph /  3.2km/h 2.0mph /  3.2km/h 65% 0.00in /  0mm
01:56 49.9 °F /  9.9 °C 39.0 °F /  3.9 °C 30.00in /  1015.8hPa East 1.0mph /  1.6km/h 2.0mph /  3.2km/h 66% 0.00in /  0mm
02:01 49.9 °F /  9.9 °C 38.6 °F /  3.7 °C 30.00in /  1015.8hPa NE 1.0mph /  1.6km/h 3.0mph /  4.8km/h 65% 0.00in /  0mm
02:06 49.9 °F /  9.9 °C 39.0 °F /  3.9 °C 30.00in /  1015.8hPa East 2.0mph /  3.2km/h 2.0mph /  3.2km/h 66% 0.00in /  0mm
02:11 49.7 °F /  9.8 °C 39.2 °F /  4 °C 30.01in /  1016.1hPa NE 1.0mph /  1.6km/h 2.0mph /  3.2km/h 67% 0.00in /  0mm
02:16 49.3 °F /  9.6 °C 40.7 °F /  4.8 °C 30.01in /  1016.1hPa Calm     72% 0.00in /  0mm
02:21 48.8 °F /  9.3 °C 40.9 °F /  4.9 °C 30.01in /  1016.1hPa Calm     74% 0.00in /  0mm
02:26 48.3 °F /  9.1 °C 41.4 °F /  5.2 °C 30.01in /  1016.1hPa East 1.0mph /  1.6km/h 1.0mph /  1.6km/h 77% 0.00in /  0mm
02:31 47.8 °F /  8.8 °C 41.0 °F /  5 °C 30.01in /  1016.1hPa East 1.0mph /  1.6km/h 1.0mph /  1.6km/h 77% 0.00in /  0mm
02:36 47.5 °F /  8.6 °C 41.0 °F /  5 °C 30.01in /  1016.1hPa East 2.0mph /  3.2km/h 3.0mph /  4.8km/h 78% 0.00in /  0mm
02:41 47.5 °F /  8.6 °C 41.0 °F /  5 °C 30.01in /  1016.1hPa ENE 1.0mph /  1.6km/h 3.0mph /  4.8km/h 78% 0.00in /  0mm
02:46 47.4 °F /  8.6 °C 41.2 °F /  5.1 °C 30.00in /  1015.8hPa ENE 3.0mph /  4.8km/h 3.0mph /  4.8km/h 79% 0.00in /  0mm
02:51 47.4 °F /  8.6 °C 41.2 °F /  5.1 °C 30.00in /  1015.8hPa East 2.0mph /  3.2km/h 3.0mph /  4.8km/h 79% 0.00in /  0mm
02:56 47.4 °F /  8.6 °C 41.2 °F /  5.1 °C 30.00in /  1015.8hPa ENE 2.0mph /  3.2km/h 4.0mph /  6.4km/h 79% 0.00in /  0mm
03:01 47.4 °F /  8.6 °C 41.2 °F /  5.1 °C 30.00in /  1015.8hPa ENE 2.0mph /  3.2km/h 4.0mph /  6.4km/h 79% 0.00in /  0mm
03:06 47.2 °F /  8.4 °C 41.4 °F /  5.2 °C 30.00in /  1015.8hPa East 2.0mph /  3.2km/h 3.0mph /  4.8km/h 80% 0.00in /  0mm
03:11 47.1 °F /  8.4 °C 41.3 °F /  5.2 °C 30.00in /  1015.8hPa East 2.0mph /  3.2km/h 3.0mph /  4.8km/h 80% 0.00in /  0mm
03:16 47.1 °F /  8.4 °C 41.6 °F /  5.3 °C 30.00in /  1015.8hPa Calm   2.0mph /  3.2km/h 81% 0.00in /  0mm
03:21 46.9 °F /  8.3 °C 41.4 °F /  5.2 °C 30.00in /  1015.8hPa East 1.0mph /  1.6km/h 1.0mph /  1.6km/h 81% 0.00in /  0mm
03:26 46.8 °F /  8.2 °C 41.9 °F /  5.5 °C 30.00in /  1015.8hPa East 1.0mph /  1.6km/h 1.0mph /  1.6km/h 83% 0.00in /  0mm
03:31 46.7 °F /  8.2 °C 41.8 °F /  5.4 °C 30.00in /  1015.8hPa East 1.0mph /  1.6km/h 2.0mph /  3.2km/h 83% 0.00in /  0mm
03:36 46.6 °F /  8.1 °C 42.6 °F /  5.9 °C 30.00in /  1015.8hPa Calm   1.0mph /  1.6km/h 86% 0.00in /  0mm
03:41 46.3 °F /  7.9 °C 43.0 °F /  6.1 °C 30.00in /  1015.8hPa NE 2.0mph /  3.2km/h 2.0mph /  3.2km/h 88% 0.00in /  0mm
03:46 46.0 °F /  7.8 °C 42.3 °F /  5.7 °C 30.00in /  1015.8hPa NNE 2.0mph /  3.2km/h 3.0mph /  4.8km/h 87% 0.00in /  0mm
03:51 46.0 °F /  7.8 °C 42.7 °F /  5.9 °C 29.99in /  1015.5hPa NE 3.0mph /  4.8km/h 3.0mph /  4.8km/h 88% 0.00in /  0mm
03:57 45.9 °F /  7.7 °C 42.8 °F /  6 °C 29.99in /  1015.5hPa NNE 2.0mph /  3.2km/h 4.0mph /  6.4km/h 89% 0.00in /  0mm
04:02 45.9 °F /  7.7 °C 43.1 °F /  6.2 °C 29.99in /  1015.5hPa NNE 2.0mph /  3.2km/h 3.0mph /  4.8km/h 90% 0.00in /  0mm
04:07 45.8 °F /  7.7 °C 42.8 °F /  6 °C 29.99in /  1015.5hPa NE 1.0mph /  1.6km/h 3.0mph /  4.8km/h 89% 0.00in /  0mm
04:12 45.8 °F /  7.7 °C 42.8 °F /  6 °C 29.99in /  1015.5hPa NE 2.0mph /  3.2km/h 3.0mph /  4.8km/h 89% 0.00in /  0mm
04:17 45.9 °F /  7.7 °C 42.8 °F /  6 °C 29.99in /  1015.5hPa NE 2.0mph /  3.2km/h 4.0mph /  6.4km/h 89% 0.00in /  0mm
04:22 46.0 °F /  7.8 °C 42.7 °F /  5.9 °C 29.98in /  1015.1hPa ENE 2.0mph /  3.2km/h 3.0mph /  4.8km/h 88% 0.00in /  0mm
04:27 46.1 °F /  7.8 °C 42.8 °F /  6 °C 29.98in /  1015.1hPa East 2.0mph /  3.2km/h 4.0mph /  6.4km/h 88% 0.00in /  0mm
04:32 46.3 °F /  7.9 °C 43.0 °F /  6.1 °C 29.98in /  1015.1hPa NE 3.0mph /  4.8km/h 4.0mph /  6.4km/h 88% 0.00in /  0mm
04:37 46.5 °F /  8.1 °C 42.8 °F /  6 °C 29.98in /  1015.1hPa Calm   2.0mph /  3.2km/h 87% 0.00in /  0mm
04:42 46.5 °F /  8.1 °C 43.1 °F /  6.2 °C 29.98in /  1015.1hPa Calm   1.0mph /  1.6km/h 88% 0.00in /  0mm
04:47 46.7 °F /  8.2 °C 43.0 °F /  6.1 °C 29.98in /  1015.1hPa NE 1.0mph /  1.6km/h 3.0mph /  4.8km/h 87% 0.00in /  0mm
04:52 47.1 °F /  8.4 °C 43.1 °F /  6.2 °C 29.97in /  1014.8hPa East 2.0mph /  3.2km/h 3.0mph /  4.8km/h 86% 0.00in /  0mm
04:57 47.2 °F /  8.4 °C 43.2 °F /  6.2 °C 29.97in /  1014.8hPa ENE 2.0mph /  3.2km/h 3.0mph /  4.8km/h 86% 0.00in /  0mm
05:02 47.1 °F /  8.4 °C 43.4 °F /  6.3 °C 29.97in /  1014.8hPa East 1.0mph /  1.6km/h 2.0mph /  3.2km/h 87% 0.00in /  0mm
05:07 47.1 °F /  8.4 °C 43.4 °F /  6.3 °C 29.97in /  1014.8hPa Calm   2.0mph /  3.2km/h 87% 0.00in /  0mm
05:12 47.1 °F /  8.4 °C 43.4 °F /  6.3 °C 29.97in /  1014.8hPa East 2.0mph /  3.2km/h 2.0mph /  3.2km/h 87% 0.00in /  0mm
05:17 47.3 °F /  8.5 °C 43.3 °F /  6.3 °C 29.97in /  1014.8hPa East 1.0mph /  1.6km/h 3.0mph /  4.8km/h 86% 0.00in /  0mm
05:22 47.5 °F /  8.6 °C 43.2 °F /  6.2 °C 29.97in /  1014.8hPa East 1.0mph /  1.6km/h 2.0mph /  3.2km/h 85% 0.00in /  0mm
05:27 47.6 °F /  8.7 °C 43.3 °F /  6.3 °C 29.97in /  1014.8hPa ENE 1.0mph /  1.6km/h 2.0mph /  3.2km/h 85% 0.00in /  0mm
05:32 47.6 °F /  8.7 °C 43.9 °F /  6.6 °C 29.97in /  1014.8hPa NE 1.0mph /  1.6km/h 2.0mph /  3.2km/h 87% 0.00in /  0mm
05:37 47.3 °F /  8.5 °C 43.9 °F /  6.6 °C 29.97in /  1014.8hPa Calm   2.0mph /  3.2km/h 88% 0.00in /  0mm
05:42 47.3 °F /  8.5 °C 43.6 °F /  6.4 °C 29.97in /  1014.8hPa ENE 2.0mph /  3.2km/h 2.0mph /  3.2km/h 87% 0.00in /  0mm
05:47 47.5 °F /  8.6 °C 43.2 °F /  6.2 °C 29.97in /  1014.8hPa East 3.0mph /  4.8km/h 3.0mph /  4.8km/h 85% 0.00in /  0mm
05:52 47.7 °F /  8.7 °C 43.1 °F /  6.2 °C 29.97in /  1014.8hPa East 3.0mph /  4.8km/h 4.0mph /  6.4km/h 84% 0.00in /  0mm
05:57 47.8 °F /  8.8 °C 43.2 °F /  6.2 °C 29.97in /  1014.8hPa NE 4.0mph /  6.4km/h 4.0mph /  6.4km/h 84% 0.00in /  0mm
06:02 47.8 °F /  8.8 °C 43.2 °F /  6.2 °C 29.97in /  1014.8hPa East 2.0mph /  3.2km/h 2.0mph /  3.2km/h 84% 0.00in /  0mm
06:07 47.8 °F /  8.8 °C 43.2 °F /  6.2 °C 29.97in /  1014.8hPa East 3.0mph /  4.8km/h 4.0mph /  6.4km/h 84% 0.00in /  0mm
06:13 47.9 °F /  8.8 °C 43.0 °F /  6.1 °C 29.97in /  1014.8hPa ESE 3.0mph /  4.8km/h 4.0mph /  6.4km/h 83% 0.00in /  0mm
06:18 47.8 °F /  8.8 °C 42.9 °F /  6.1 °C 29.97in /  1014.8hPa ESE 2.0mph /  3.2km/h 4.0mph /  6.4km/h 83% 0.00in /  0mm
06:23 47.7 °F /  8.7 °C 42.8 °F /  6 °C 29.97in /  1014.8hPa East 4.0mph /  6.4km/h 4.0mph /  6.4km/h 83% 0.00in /  0mm
06:28 47.6 °F /  8.7 °C 43.0 °F /  6.1 °C 29.98in /  1015.1hPa East 1.0mph /  1.6km/h 4.0mph /  6.4km/h 84% 0.00in /  0mm
06:33 47.7 °F /  8.7 °C 42.8 °F /  6 °C 29.98in /  1015.1hPa East 2.0mph /  3.2km/h 3.0mph /  4.8km/h 83% 0.00in /  0mm
06:38 47.8 °F /  8.8 °C 42.6 °F /  5.9 °C 29.98in /  1015.1hPa East 2.0mph /  3.2km/h 3.0mph /  4.8km/h 82% 0.00in /  0mm
06:43 48.0 °F /  8.9 °C 42.5 °F /  5.8 °C 29.97in /  1014.8hPa East 2.0mph /  3.2km/h 4.0mph /  6.4km/h 81% 0.00in /  0mm
06:48 48.1 °F /  8.9 °C 42.5 °F /  5.8 °C 29.97in /  1014.8hPa ESE 3.0mph /  4.8km/h 4.0mph /  6.4km/h 81% 0.00in /  0mm
06:53 48.0 °F /  8.9 °C 42.8 °F /  6 °C 29.98in /  1015.1hPa ESE 2.0mph /  3.2km/h 3.0mph /  4.8km/h 82% 0.00in /  0mm
06:58 48.0 °F /  8.9 °C 42.8 °F /  6 °C 29.98in /  1015.1hPa East 1.0mph /  1.6km/h 4.0mph /  6.4km/h 82% 0.00in /  0mm
07:03 48.1 °F /  8.9 °C 42.5 °F /  5.8 °C 29.98in /  1015.1hPa SE 3.0mph /  4.8km/h 3.0mph /  4.8km/h 81% 0.00in /  0mm
07:08 48.0 °F /  8.9 °C 42.8 °F /  6 °C 29.98in /  1015.1hPa SE 2.0mph /  3.2km/h 3.0mph /  4.8km/h 82% 0.00in /  0mm
07:13 48.0 °F /  8.9 °C 42.8 °F /  6 °C 29.98in /  1015.1hPa East 4.0mph /  6.4km/h 4.0mph /  6.4km/h 82% 0.00in /  0mm
07:18 47.9 °F /  8.8 °C 42.7 °F /  5.9 °C 29.98in /  1015.1hPa ESE 6.0mph /  9.7km/h 6.0mph /  9.7km/h 82% 0.00in /  0mm
07:24 47.9 °F /  8.8 °C 42.7 °F /  5.9 °C 29.98in /  1015.1hPa East 2.0mph /  3.2km/h 4.0mph /  6.4km/h 82% 0.00in /  0mm
07:29 48.0 °F /  8.9 °C 42.8 °F /  6 °C 29.98in /  1015.1hPa East 3.0mph /  4.8km/h 4.0mph /  6.4km/h 82% 0.00in /  0mm
07:34 48.1 °F /  8.9 °C 42.5 °F /  5.8 °C 29.98in /  1015.1hPa East 2.0mph /  3.2km/h 4.0mph /  6.4km/h 81% 0.00in /  0mm
07:39 48.1 °F /  8.9 °C 42.5 °F /  5.8 °C 29.98in /  1015.1hPa ESE 4.0mph /  6.4km/h 4.0mph /  6.4km/h 81% 0.00in /  0mm
07:44 48.2 °F /  9 °C 43.0 °F /  6.1 °C 29.99in /  1015.5hPa ESE 2.0mph /  3.2km/h 5.0mph /  8km/h 82% 0.00in /  0mm
07:49 48.1 °F /  8.9 °C 42.9 °F /  6.1 °C 29.99in /  1015.5hPa ESE 3.0mph /  4.8km/h 4.0mph /  6.4km/h 82% 0.00in /  0mm
07:54 48.1 °F /  8.9 °C 42.5 °F /  5.8 °C 29.99in /  1015.5hPa ESE 3.0mph /  4.8km/h 4.0mph /  6.4km/h 81% 0.00in /  0mm
07:59 48.1 °F /  8.9 °C 42.9 °F /  6.1 °C 29.98in /  1015.1hPa ESE 1.0mph /  1.6km/h 2.0mph /  3.2km/h 82% 0.00in /  0mm
08:04 48.1 °F /  8.9 °C 43.2 °F /  6.2 °C 29.98in /  1015.1hPa ENE 3.0mph /  4.8km/h 3.0mph /  4.8km/h 83% 0.00in /  0mm
08:09 48.2 °F /  9 °C 43.0 °F /  6.1 °C 29.99in /  1015.5hPa ESE 3.0mph /  4.8km/h 4.0mph /  6.4km/h 82% 0.00in /  0mm
08:14 48.3 °F /  9.1 °C 43.1 °F /  6.2 °C 29.98in /  1015.1hPa East 4.0mph /  6.4km/h 4.0mph /  6.4km/h 82% 0.00in /  0mm
08:19 48.4 °F /  9.1 °C 43.2 °F /  6.2 °C 29.98in /  1015.1hPa East 2.0mph /  3.2km/h 4.0mph /  6.4km/h 82% 0.00in /  0mm
08:24 48.4 °F /  9.1 °C 43.2 °F /  6.2 °C 29.98in /  1015.1hPa East 4.0mph /  6.4km/h 5.0mph /  8km/h 82% 0.00in /  0mm
08:29 48.4 °F /  9.1 °C 43.2 °F /  6.2 °C 29.98in /  1015.1hPa East 2.0mph /  3.2km/h 3.0mph /  4.8km/h 82% 0.00in /  0mm
08:34 48.6 °F /  9.2 °C 43.4 °F /  6.3 °C 29.98in /  1015.1hPa East 2.0mph /  3.2km/h 4.0mph /  6.4km/h 82% 0.00in /  0mm
08:39 48.7 °F /  9.3 °C 43.5 °F /  6.4 °C 29.99in /  1015.5hPa ENE 4.0mph /  6.4km/h 4.0mph /  6.4km/h 82% 0.00in /  0mm
08:44 48.8 °F /  9.3 °C 43.6 °F /  6.4 °C 29.99in /  1015.5hPa ESE 2.0mph /  3.2km/h 5.0mph /  8km/h 82% 0.00in /  0mm
08:49 48.9 °F /  9.4 °C 43.7 °F /  6.5 °C 29.98in /  1015.1hPa ENE 2.0mph /  3.2km/h 4.0mph /  6.4km/h 82% 0.00in /  0mm
08:54 49.0 °F /  9.4 °C 44.1 °F /  6.7 °C 29.98in /  1015.1hPa ESE 3.0mph /  4.8km/h 4.0mph /  6.4km/h 83% 0.00in /  0mm
08:59 49.0 °F /  9.4 °C 44.1 °F /  6.7 °C 29.98in /  1015.1hPa ESE 4.0mph /  6.4km/h 5.0mph /  8km/h 83% 0.00in /  0mm
09:04 49.0 °F /  9.4 °C 44.7 °F /  7.1 °C 29.98in /  1015.1hPa ESE 6.0mph /  9.7km/h 6.0mph /  9.7km/h 85% 0.00in /  0mm
09:09 49.2 °F /  9.6 °C 44.9 °F /  7.2 °C 29.98in /  1015.1hPa ESE 3.0mph /  4.8km/h 5.0mph /  8km/h 85% 0.00in /  0mm
09:14 49.5 °F /  9.7 °C 45.2 °F /  7.3 °C 29.98in /  1015.1hPa SE 3.0mph /  4.8km/h 5.0mph /  8km/h 85% 0.00in /  0mm
09:19 49.7 °F /  9.8 °C 45.1 °F /  7.3 °C 29.98in /  1015.1hPa ESE 5.0mph /  8km/h 6.0mph /  9.7km/h 84% 0.00in /  0mm
09:24 49.9 °F /  9.9 °C 45.3 °F /  7.4 °C 29.98in /  1015.1hPa ESE 5.0mph /  8km/h 5.0mph /  8km/h 84% 0.00in /  0mm
09:29 50.1 °F /  10.1 °C 45.8 °F /  7.7 °C 29.98in /  1015.1hPa ESE 2.0mph /  3.2km/h 5.0mph /  8km/h 85% 0.00in /  0mm
09:35 50.3 °F /  10.2 °C 46.0 °F /  7.8 °C 29.98in /  1015.1hPa East 4.0mph /  6.4km/h 5.0mph /  8km/h 85% 0.00in /  0mm
09:40 50.4 °F /  10.2 °C 45.8 °F /  7.7 °C 29.97in /  1014.8hPa ESE 5.0mph /  8km/h 6.0mph /  9.7km/h 84% 0.00in /  0mm
09:45 50.5 °F /  10.3 °C 46.2 °F /  7.9 °C 29.97in /  1014.8hPa ENE 5.0mph /  8km/h 7.0mph /  11.3km/h 85% 0.00in /  0mm
09:50 50.6 °F /  10.3 °C 46.3 °F /  7.9 °C 29.97in /  1014.8hPa East 4.0mph /  6.4km/h 8.0mph /  12.9km/h 85% 0.00in /  0mm
09:55 50.9 °F /  10.5 °C 46.6 °F /  8.1 °C 29.98in /  1015.1hPa East 4.0mph /  6.4km/h 7.0mph /  11.3km/h 85% 0.00in /  0mm
10:00 51.1 °F /  10.6 °C 46.8 °F /  8.2 °C 29.98in /  1015.1hPa SE 5.0mph /  8km/h 7.0mph /  11.3km/h 85% 0.00in /  0mm
10:05 51.2 °F /  10.7 °C 46.8 °F /  8.2 °C 29.99in /  1015.5hPa ESE 5.0mph /  8km/h 7.0mph /  11.3km/h 85% 0.00in /  0mm
10:10 51.2 °F /  10.7 °C 47.2 °F /  8.4 °C 29.99in /  1015.5hPa ESE 4.0mph /  6.4km/h 6.0mph /  9.7km/h 86% 0.00in /  0mm
10:15 51.2 °F /  10.7 °C 47.5 °F /  8.6 °C 29.99in /  1015.5hPa SE 4.0mph /  6.4km/h 5.0mph /  8km/h 87% 0.00in /  0mm
10:20 51.3 °F /  10.7 °C 47.9 °F /  8.8 °C 29.99in /  1015.5hPa ESE 5.0mph /  8km/h 5.0mph /  8km/h 88% 0.00in /  0mm
10:25 51.3 °F /  10.7 °C 47.6 °F /  8.7 °C 29.98in /  1015.1hPa ESE 4.0mph /  6.4km/h 6.0mph /  9.7km/h 87% 0.00in /  0mm
10:30 51.5 °F /  10.8 °C 48.1 °F /  8.9 °C 29.98in /  1015.1hPa East 5.0mph /  8km/h 7.0mph /  11.3km/h 88% 0.00in /  0mm
10:35 51.8 °F /  11 °C 48.4 °F /  9.1 °C 29.98in /  1015.1hPa ESE 5.0mph /  8km/h 8.0mph /  12.9km/h 88% 0.00in /  0mm
10:40 51.9 °F /  11.1 °C 48.5 °F /  9.2 °C 29.98in /  1015.1hPa East 6.0mph /  9.7km/h 7.0mph /  11.3km/h 88% 0.00in /  0mm
10:45 51.9 °F /  11.1 °C 48.2 °F /  9 °C 29.97in /  1014.8hPa ESE 6.0mph /  9.7km/h 7.0mph /  11.3km/h 87% 0.00in /  0mm
10:50 51.9 °F /  11.1 °C 48.5 °F /  9.2 °C 29.97in /  1014.8hPa ESE 3.0mph /  4.8km/h 8.0mph /  12.9km/h 88% 0.00in /  0mm
10:55 52.1 °F /  11.2 °C 48.7 °F /  9.3 °C 29.97in /  1014.8hPa ESE 5.0mph /  8km/h 7.0mph /  11.3km/h 88% 0.00in /  0mm
11:00 52.2 °F /  11.2 °C 48.8 °F /  9.3 °C 29.97in /  1014.8hPa ESE 6.0mph /  9.7km/h 7.0mph /  11.3km/h 88% 0.00in /  0mm
11:06 52.5 °F /  11.4 °C 48.8 °F /  9.3 °C 29.97in /  1014.8hPa ESE 7.0mph /  11.3km/h 9.0mph /  14.5km/h 87% 0.00in /  0mm
11:11 52.7 °F /  11.5 °C 49.2 °F /  9.6 °C 29.97in /  1014.8hPa SE 4.0mph /  6.4km/h 8.0mph /  12.9km/h 88% 0.00in /  0mm
11:16 53.0 °F /  11.7 °C 49.8 °F /  9.9 °C 29.97in /  1014.8hPa SE 5.0mph /  8km/h 6.0mph /  9.7km/h 89% 0.00in /  0mm
11:21 53.0 °F /  11.7 °C 49.8 °F /  9.9 °C 29.97in /  1014.8hPa SE 5.0mph /  8km/h 7.0mph /  11.3km/h 89% 0.00in /  0mm
11:26 53.1 °F /  11.7 °C 50.0 °F /  10 °C 29.97in /  1014.8hPa SE 6.0mph /  9.7km/h 7.0mph /  11.3km/h 89% 0.00in /  0mm
11:31 53.3 °F /  11.8 °C 50.2 °F /  10.1 °C 29.97in /  1014.8hPa SE 4.0mph /  6.4km/h 6.0mph /  9.7km/h 89% 0.00in /  0mm
11:36 53.4 °F /  11.9 °C 50.5 °F /  10.3 °C 29.97in /  1014.8hPa SSE 3.0mph /  4.8km/h 5.0mph /  8km/h 90% 0.00in /  0mm
11:41 53.5 °F /  11.9 °C 50.6 °F /  10.3 °C 29.97in /  1014.8hPa SE 4.0mph /  6.4km/h 8.0mph /  12.9km/h 90% 0.00in /  0mm
11:46 53.7 °F /  12.1 °C 51.1 °F /  10.6 °C 29.96in /  1014.4hPa SSE 4.0mph /  6.4km/h 5.0mph /  8km/h 91% 0.00in /  0mm
11:51 53.9 °F /  12.2 °C 51.3 °F /  10.7 °C 29.96in /  1014.4hPa SSE 4.0mph /  6.4km/h 6.0mph /  9.7km/h 91% 0.00in /  0mm
11:56 54.3 °F /  12.4 °C 51.4 °F /  10.8 °C 29.95in /  1014.1hPa ESE 3.0mph /  4.8km/h 6.0mph /  9.7km/h 90% 0.00in /  0mm
12:01 54.6 °F /  12.6 °C 51.7 °F /  10.9 °C 29.95in /  1014.1hPa SE 4.0mph /  6.4km/h 6.0mph /  9.7km/h 90% 0.00in /  0mm
12:06 54.9 °F /  12.7 °C 52.0 °F /  11.1 °C 29.95in /  1014.1hPa SSE 3.0mph /  4.8km/h 6.0mph /  9.7km/h 90% 0.00in /  0mm
12:11 55.1 °F /  12.8 °C 52.2 °F /  11.2 °C 29.95in /  1014.1hPa SE 2.0mph /  3.2km/h 5.0mph /  8km/h 90% 0.00in /  0mm
12:16 55.4 °F /  13 °C 52.5 °F /  11.4 °C 29.94in /  1013.8hPa SSE 5.0mph /  8km/h 6.0mph /  9.7km/h 90% 0.00in /  0mm
12:21 55.5 °F /  13.1 °C 52.6 °F /  11.4 °C 29.94in /  1013.8hPa SE 5.0mph /  8km/h 9.0mph /  14.5km/h 90% 0.00in /  0mm
12:26 55.6 °F /  13.1 °C 52.7 °F /  11.5 °C 29.94in /  1013.8hPa SE 4.0mph /  6.4km/h 7.0mph /  11.3km/h 90% 0.00in /  0mm
12:31 55.8 °F /  13.2 °C 52.9 °F /  11.6 °C 29.93in /  1013.4hPa SSE 4.0mph /  6.4km/h 5.0mph /  8km/h 90% 0.00in /  0mm
12:36 55.9 °F /  13.3 °C 53.0 °F /  11.7 °C 29.93in /  1013.4hPa SSE 4.0mph /  6.4km/h 6.0mph /  9.7km/h 90% 0.00in /  0mm
12:41 56.0 °F /  13.3 °C 53.1 °F /  11.7 °C 29.92in /  1013.1hPa SSE 5.0mph /  8km/h 6.0mph /  9.7km/h 90% 0.00in /  0mm
12:46 56.2 °F /  13.4 °C 53.3 °F /  11.8 °C 29.92in /  1013.1hPa SE 5.0mph /  8km/h 6.0mph /  9.7km/h 90% 0.00in /  0mm
12:51 56.3 °F /  13.5 °C 53.7 °F /  12.1 °C 29.91in /  1012.8hPa SSE 3.0mph /  4.8km/h 5.0mph /  8km/h 91% 0.00in /  0mm
12:56 56.5 °F /  13.6 °C 53.9 °F /  12.2 °C 29.91in /  1012.8hPa South 3.0mph /  4.8km/h 5.0mph /  8km/h 91% 0.00in /  0mm
13:01 56.6 °F /  13.7 °C 54.0 °F /  12.2 °C 29.91in /  1012.8hPa SE 4.0mph /  6.4km/h 7.0mph /  11.3km/h 91% 0.00in /  0mm
13:06 56.7 °F /  13.7 °C 54.1 °F /  12.3 °C 29.91in /  1012.8hPa South 3.0mph /  4.8km/h 7.0mph /  11.3km/h 91% 0.00in /  0mm
13:11 56.8 °F /  13.8 °C 54.2 °F /  12.3 °C 29.90in /  1012.4hPa SE 4.0mph /  6.4km/h 6.0mph /  9.7km/h 91% 0.00in /  0mm
13:16 57.0 °F /  13.9 °C 54.4 °F /  12.4 °C 29.90in /  1012.4hPa SE 3.0mph /  4.8km/h 5.0mph /  8km/h 91% 0.00in /  0mm
13:21 57.2 °F /  14 °C 54.6 °F /  12.6 °C 29.90in /  1012.4hPa SSW 6.0mph /  9.7km/h 6.0mph /  9.7km/h 91% 0.00in /  0mm
13:26 57.3 °F /  14.1 °C 54.7 °F /  12.6 °C 29.90in /  1012.4hPa SSE 8.0mph /  12.9km/h 8.0mph /  12.9km/h 91% 0.00in /  0mm
13:32 57.3 °F /  14.1 °C 54.7 °F /  12.6 °C 29.90in /  1012.4hPa SSE 5.0mph /  8km/h 9.0mph /  14.5km/h 91% 0.00in /  0mm
13:37 57.6 °F /  14.2 °C 55.0 °F /  12.8 °C 29.89in /  1012.1hPa SE 6.0mph /  9.7km/h 11.0mph /  17.7km/h 91% 0.00in /  0mm
13:42 58.0 °F /  14.4 °C 55.4 °F /  13 °C 29.89in /  1012.1hPa SE 6.0mph /  9.7km/h 6.0mph /  9.7km/h 91% 0.00in /  0mm
13:47 58.1 °F /  14.5 °C 55.2 °F /  12.9 °C 29.88in /  1011.7hPa SSE 5.0mph /  8km/h 8.0mph /  12.9km/h 90% 0.00in /  0mm
13:52 58.2 °F /  14.6 °C 55.3 °F /  12.9 °C 29.88in /  1011.7hPa SE 7.0mph /  11.3km/h 8.0mph /  12.9km/h 90% 0.00in /  0mm
13:57 58.2 °F /  14.6 °C 55.3 °F /  12.9 °C 29.88in /  1011.7hPa SE 8.0mph /  12.9km/h 10.0mph /  16.1km/h 90% 0.00in /  0mm
14:02 58.4 °F /  14.7 °C 55.5 °F /  13.1 °C 29.88in /  1011.7hPa SE 4.0mph /  6.4km/h 9.0mph /  14.5km/h 90% 0.00in /  0mm
14:07 58.4 °F /  14.7 °C 55.8 °F /  13.2 °C 29.88in /  1011.7hPa SE 8.0mph /  12.9km/h 11.0mph /  17.7km/h 91% 0.00in /  0mm
14:12 58.3 °F /  14.6 °C 55.7 °F /  13.2 °C 29.88in /  1011.7hPa SE 5.0mph /  8km/h 8.0mph /  12.9km/h 91% 0.00in /  0mm
14:17 58.2 °F /  14.6 °C 55.6 °F /  13.1 °C 29.88in /  1011.7hPa SE 5.0mph /  8km/h 8.0mph /  12.9km/h 91% 0.00in /  0mm
14:22 58.1 °F /  14.5 °C 55.5 °F /  13.1 °C 29.87in /  1011.4hPa SE 6.0mph /  9.7km/h 9.0mph /  14.5km/h 91% 0.00in /  0mm
14:27 58.1 °F /  14.5 °C 55.5 °F /  13.1 °C 29.88in /  1011.7hPa SSW 3.0mph /  4.8km/h 8.0mph /  12.9km/h 91% 0.00in /  0mm
14:32 58.1 °F /  14.5 °C 55.5 °F /  13.1 °C 29.88in /  1011.7hPa SE 6.0mph /  9.7km/h 8.0mph /  12.9km/h 91% 0.00in /  0mm
14:37 58.2 °F /  14.6 °C 55.6 °F /  13.1 °C 29.87in /  1011.4hPa SSE 5.0mph /  8km/h 8.0mph /  12.9km/h 91% 0.00in /  0mm
14:42 58.3 °F /  14.6 °C 55.7 °F /  13.2 °C 29.87in /  1011.4hPa SE 5.0mph /  8km/h 8.0mph /  12.9km/h 91% 0.00in /  0mm
14:47 58.4 °F /  14.7 °C 55.8 °F /  13.2 °C 29.87in /  1011.4hPa SSE 4.0mph /  6.4km/h 9.0mph /  14.5km/h 91% 0.00in /  0mm
14:52 58.4 °F /  14.7 °C 55.8 °F /  13.2 °C 29.87in /  1011.4hPa SE 5.0mph /  8km/h 8.0mph /  12.9km/h 91% 0.00in /  0mm
14:57 58.4 °F /  14.7 °C 55.8 °F /  13.2 °C 29.87in /  1011.4hPa SE 4.0mph /  6.4km/h 7.0mph /  11.3km/h 91% 0.00in /  0mm
15:02 58.3 °F /  14.6 °C 55.7 °F /  13.2 °C 29.87in /  1011.4hPa SE 8.0mph /  12.9km/h 8.0mph /  12.9km/h 91% 0.00in /  0mm
15:07 58.4 °F /  14.7 °C 55.8 °F /  13.2 °C 29.87in /  1011.4hPa SSE 4.0mph /  6.4km/h 8.0mph /  12.9km/h 91% 0.00in /  0mm
15:12 58.4 °F /  14.7 °C 55.8 °F /  13.2 °C 29.86in /  1011.1hPa SE 3.0mph /  4.8km/h 8.0mph /  12.9km/h 91% 0.00in /  0mm
15:17 58.4 °F /  14.7 °C 55.8 °F /  13.2 °C 29.87in /  1011.4hPa SSE 4.0mph /  6.4km/h 5.0mph /  8km/h 91% 0.00in /  0mm
15:22 58.4 °F /  14.7 °C 55.8 °F /  13.2 °C 29.86in /  1011.1hPa SE 5.0mph /  8km/h 8.0mph /  12.9km/h 91% 0.00in /  0mm
15:27 58.4 °F /  14.7 °C 55.8 °F /  13.2 °C 29.86in /  1011.1hPa SE 5.0mph /  8km/h 8.0mph /  12.9km/h 91% 0.00in /  0mm
15:32 58.5 °F /  14.7 °C 56.2 °F /  13.4 °C 29.86in /  1011.1hPa SE 6.0mph /  9.7km/h 7.0mph /  11.3km/h 92% 0.00in /  0mm
15:37 58.6 °F /  14.8 °C 56.3 °F /  13.5 °C 29.86in /  1011.1hPa SE 6.0mph /  9.7km/h 8.0mph /  12.9km/h 92% 0.00in /  0mm
15:42 58.6 °F /  14.8 °C 56.0 °F /  13.3 °C 29.86in /  1011.1hPa SSE 3.0mph /  4.8km/h 6.0mph /  9.7km/h 91% 0.00in /  0mm
15:47 58.6 °F /  14.8 °C 56.3 °F /  13.5 °C 29.86in /  1011.1hPa SE 4.0mph /  6.4km/h 8.0mph /  12.9km/h 92% 0.00in /  0mm
15:52 58.6 °F /  14.8 °C 56.3 °F /  13.5 °C 29.86in /  1011.1hPa SE 3.0mph /  4.8km/h 7.0mph /  11.3km/h 92% 0.00in /  0mm
15:57 58.7 °F /  14.8 °C 56.4 °F /  13.6 °C 29.86in /  1011.1hPa SSE 5.0mph /  8km/h 10.0mph /  16.1km/h 92% 0.00in /  0mm
16:02 58.7 °F /  14.8 °C 56.4 °F /  13.6 °C 29.86in /  1011.1hPa SE 4.0mph /  6.4km/h 7.0mph /  11.3km/h 92% 0.00in /  0mm
16:07 58.6 °F /  14.8 °C 56.3 °F /  13.5 °C 29.86in /  1011.1hPa South 4.0mph /  6.4km/h 7.0mph /  11.3km/h 92% 0.00in /  0mm
16:12 58.5 °F /  14.7 °C 56.2 °F /  13.4 °C 29.86in /  1011.1hPa SE 3.0mph /  4.8km/h 6.0mph /  9.7km/h 92% 0.00in /  0mm
16:18 58.5 °F /  14.7 °C 56.2 °F /  13.4 °C 29.86in /  1011.1hPa SE 5.0mph /  8km/h 6.0mph /  9.7km/h 92% 0.00in /  0mm
16:23 58.7 °F /  14.8 °C 56.4 °F /  13.6 °C 29.86in /  1011.1hPa SE 5.0mph /  8km/h 6.0mph /  9.7km/h 92% 0.00in /  0mm
16:28 58.8 °F /  14.9 °C 56.5 °F /  13.6 °C 29.86in /  1011.1hPa South 4.0mph /  6.4km/h 7.0mph /  11.3km/h 92% 0.00in /  0mm
16:33 58.8 °F /  14.9 °C 56.5 °F /  13.6 °C 29.86in /  1011.1hPa SSE 6.0mph /  9.7km/h 6.0mph /  9.7km/h 92% 0.00in /  0mm
16:38 59.0 °F /  15 °C 57.0 °F /  13.9 °C 29.86in /  1011.1hPa SSE 4.0mph /  6.4km/h 6.0mph /  9.7km/h 93% 0.00in /  0mm
16:43 59.1 °F /  15.1 °C 56.8 °F /  13.8 °C 29.86in /  1011.1hPa SE 4.0mph /  6.4km/h 7.0mph /  11.3km/h 92% 0.00in /  0mm
16:48 59.3 °F /  15.2 °C 57.0 °F /  13.9 °C 29.86in /  1011.1hPa SE 4.0mph /  6.4km/h 8.0mph /  12.9km/h 92% 0.00in /  0mm
16:53 59.3 °F /  15.2 °C 57.0 °F /  13.9 °C 29.86in /  1011.1hPa SE 5.0mph /  8km/h 6.0mph /  9.7km/h 92% 0.00in /  0mm
16:59 59.3 °F /  15.2 °C 57.0 °F /  13.9 °C 29.86in /  1011.1hPa SE 7.0mph /  11.3km/h 9.0mph /  14.5km/h 92% 0.00in /  0mm
17:04 59.4 °F /  15.2 °C 57.1 °F /  13.9 °C 29.86in /  1011.1hPa SSE 6.0mph /  9.7km/h 8.0mph /  12.9km/h 92% 0.00in /  0mm
17:09 59.5 °F /  15.3 °C 57.2 °F /  14 °C 29.86in /  1011.1hPa SSE 11.0mph /  17.7km/h 11.0mph /  17.7km/h 92% 0.00in /  0mm
17:14 59.6 °F /  15.3 °C 57.3 °F /  14.1 °C 29.85in /  1010.7hPa ESE 9.0mph /  14.5km/h 11.0mph /  17.7km/h 92% 0.00in /  0mm
17:19 59.6 °F /  15.3 °C 57.3 °F /  14.1 °C 29.85in /  1010.7hPa SE 8.0mph /  12.9km/h 9.0mph /  14.5km/h 92% 0.00in /  0mm
17:24 59.7 °F /  15.4 °C 57.4 °F /  14.1 °C 29.85in /  1010.7hPa SE 7.0mph /  11.3km/h 9.0mph /  14.5km/h 92% 0.00in /  0mm
17:29 59.6 °F /  15.3 °C 57.6 °F /  14.2 °C 29.85in /  1010.7hPa SE 6.0mph /  9.7km/h 8.0mph /  12.9km/h 93% 0.00in /  0mm
17:34 59.6 °F /  15.3 °C 57.6 °F /  14.2 °C 29.85in /  1010.7hPa SSE 5.0mph /  8km/h 10.0mph /  16.1km/h 93% 0.00in /  0mm
17:39 59.6 °F /  15.3 °C 57.6 °F /  14.2 °C 29.85in /  1010.7hPa SSE 6.0mph /  9.7km/h 10.0mph /  16.1km/h 93% 0.00in /  0mm
17:44 59.6 °F /  15.3 °C 57.6 °F /  14.2 °C 29.85in /  1010.7hPa SE 6.0mph /  9.7km/h 8.0mph /  12.9km/h 93% 0.00in /  0mm
17:49 59.6 °F /  15.3 °C 57.6 °F /  14.2 °C 29.85in /  1010.7hPa SE 3.0mph /  4.8km/h 7.0mph /  11.3km/h 93% 0.00in /  0mm
17:54 59.6 °F /  15.3 °C 57.6 °F /  14.2 °C 29.86in /  1011.1hPa SSE 6.0mph /  9.7km/h 8.0mph /  12.9km/h 93% 0.00in /  0mm
18:00 59.5 °F /  15.3 °C 57.5 °F /  14.2 °C 29.86in /  1011.1hPa SE 6.0mph /  9.7km/h 10.0mph /  16.1km/h 93% 0.00in /  0mm
18:05 59.5 °F /  15.3 °C 57.5 °F /  14.2 °C 29.85in /  1010.7hPa SSE 7.0mph /  11.3km/h 8.0mph /  12.9km/h 93% 0.00in /  0mm
18:10 59.5 °F /  15.3 °C 57.5 °F /  14.2 °C 29.85in /  1010.7hPa SSE 5.0mph /  8km/h 7.0mph /  11.3km/h 93% 0.00in /  0mm
18:15 59.6 °F /  15.3 °C 57.6 °F /  14.2 °C 29.86in /  1011.1hPa SE 7.0mph /  11.3km/h 8.0mph /  12.9km/h 93% 0.00in /  0mm
18:20 59.6 °F /  15.3 °C 57.6 °F /  14.2 °C 29.86in /  1011.1hPa SE 8.0mph /  12.9km/h 12.0mph /  19.3km/h 93% 0.00in /  0mm
18:25 59.6 °F /  15.3 °C 57.6 °F /  14.2 °C 29.85in /  1010.7hPa SE 8.0mph /  12.9km/h 10.0mph /  16.1km/h 93% 0.00in /  0mm
18:30 59.6 °F /  15.3 °C 57.6 °F /  14.2 °C 29.85in /  1010.7hPa SE 7.0mph /  11.3km/h 9.0mph /  14.5km/h 93% 0.00in /  0mm
18:35 59.6 °F /  15.3 °C 57.9 °F /  14.4 °C 29.85in /  1010.7hPa SE 6.0mph /  9.7km/h 11.0mph /  17.7km/h 94% 0.00in /  0mm
18:40 59.7 °F /  15.4 °C 58.0 °F /  14.4 °C 29.85in /  1010.7hPa SE 6.0mph /  9.7km/h 12.0mph /  19.3km/h 94% 0.00in /  0mm
18:45 59.7 °F /  15.4 °C 58.0 °F /  14.4 °C 29.85in /  1010.7hPa SSE 7.0mph /  11.3km/h 9.0mph /  14.5km/h 94% 0.00in /  0mm
18:50 59.7 °F /  15.4 °C 58.0 °F /  14.4 °C 29.85in /  1010.7hPa South 6.0mph /  9.7km/h 9.0mph /  14.5km/h 94% 0.00in /  0mm
18:55 59.7 °F /  15.4 °C 58.0 °F /  14.4 °C 29.85in /  1010.7hPa SE 7.0mph /  11.3km/h 9.0mph /  14.5km/h 94% 0.00in /  0mm
19:00 59.8 °F /  15.4 °C 58.1 °F /  14.5 °C 29.85in /  1010.7hPa SE 5.0mph /  8km/h 10.0mph /  16.1km/h 94% 0.00in /  0mm
19:05 59.7 °F /  15.4 °C 58.0 °F /  14.4 °C 29.85in /  1010.7hPa SE 4.0mph /  6.4km/h 6.0mph /  9.7km/h 94% 0.00in /  0mm
19:10 59.6 °F /  15.3 °C 57.9 °F /  14.4 °C 29.85in /  1010.7hPa SE 4.0mph /  6.4km/h 8.0mph /  12.9km/h 94% 0.00in /  0mm
19:15 59.5 °F /  15.3 °C 57.8 °F /  14.3 °C 29.85in /  1010.7hPa SSE 5.0mph /  8km/h 9.0mph /  14.5km/h 94% 0.00in /  0mm
19:20 59.4 °F /  15.2 °C 57.7 °F /  14.3 °C 29.85in /  1010.7hPa SSE 5.0mph /  8km/h 7.0mph /  11.3km/h 94% 0.00in /  0mm
19:25 59.3 °F /  15.2 °C 57.6 °F /  14.2 °C 29.85in /  1010.7hPa SE 5.0mph /  8km/h 7.0mph /  11.3km/h 94% 0.00in /  0mm
19:30 59.4 °F /  15.2 °C 57.7 °F /  14.3 °C 29.85in /  1010.7hPa SE 10.0mph /  16.1km/h 11.0mph /  17.7km/h 94% 0.00in /  0mm
19:35 59.5 °F /  15.3 °C 57.8 °F /  14.3 °C 29.84in /  1010.4hPa South 5.0mph /  8km/h 11.0mph /  17.7km/h 94% 0.00in /  0mm
19:40 59.5 °F /  15.3 °C 57.8 °F /  14.3 °C 29.84in /  1010.4hPa SE 6.0mph /  9.7km/h 10.0mph /  16.1km/h 94% 0.00in /  0mm
19:45 59.5 °F /  15.3 °C 57.8 °F /  14.3 °C 29.85in /  1010.7hPa SE 5.0mph /  8km/h 10.0mph /  16.1km/h 94% 0.00in /  0mm
19:50 59.6 °F /  15.3 °C 57.9 °F /  14.4 °C 29.85in /  1010.7hPa SSE 10.0mph /  16.1km/h 10.0mph /  16.1km/h 94% 0.00in /  0mm
19:55 59.6 °F /  15.3 °C 57.9 °F /  14.4 °C 29.84in /  1010.4hPa SE 6.0mph /  9.7km/h 8.0mph /  12.9km/h 94% 0.00in /  0mm
20:00 59.6 °F /  15.3 °C 57.9 °F /  14.4 °C 29.84in /  1010.4hPa ESE 9.0mph /  14.5km/h 10.0mph /  16.1km/h 94% 0.00in /  0mm
20:05 59.6 °F /  15.3 °C 57.9 °F /  14.4 °C 29.84in /  1010.4hPa SE 6.0mph /  9.7km/h 13.0mph /  20.9km/h 94% 0.00in /  0mm
20:10 59.7 °F /  15.4 °C 58.0 °F /  14.4 °C 29.84in /  1010.4hPa SSE 9.0mph /  14.5km/h 11.0mph /  17.7km/h 94% 0.00in /  0mm
20:15 59.6 °F /  15.3 °C 57.9 °F /  14.4 °C 29.84in /  1010.4hPa SE 6.0mph /  9.7km/h 11.0mph /  17.7km/h 94% 0.00in /  0mm
20:20 59.5 °F /  15.3 °C 57.8 °F /  14.3 °C 29.84in /  1010.4hPa SE 6.0mph /  9.7km/h 10.0mph /  16.1km/h 94% 0.00in /  0mm
20:25 59.4 °F /  15.2 °C 58.0 °F /  14.4 °C 29.84in /  1010.4hPa SSE 6.0mph /  9.7km/h 9.0mph /  14.5km/h 95% 0.00in /  0mm
20:30 59.3 °F /  15.2 °C 57.9 °F /  14.4 °C 29.85in /  1010.7hPa SE 8.0mph /  12.9km/h 9.0mph /  14.5km/h 95% 0.00in /  0mm
20:35 59.3 °F /  15.2 °C 57.9 °F /  14.4 °C 29.85in /  1010.7hPa SSE 9.0mph /  14.5km/h 11.0mph /  17.7km/h 95% 0.00in /  0mm
20:40 59.3 °F /  15.2 °C 57.9 °F /  14.4 °C 29.84in /  1010.4hPa SSE 10.0mph /  16.1km/h 10.0mph /  16.1km/h 95% 0.00in /  0mm
20:45 59.4 °F /  15.2 °C 58.0 °F /  14.4 °C 29.84in /  1010.4hPa SSE 9.0mph /  14.5km/h 10.0mph /  16.1km/h 95% 0.00in /  0mm
20:50 59.5 °F /  15.3 °C 58.1 °F /  14.5 °C 29.84in /  1010.4hPa SE 9.0mph /  14.5km/h 10.0mph /  16.1km/h 95% 0.00in /  0mm
20:56 59.5 °F /  15.3 °C 58.1 °F /  14.5 °C 29.84in /  1010.4hPa SE 10.0mph /  16.1km/h 11.0mph /  17.7km/h 95% 0.00in /  0mm
21:01 59.6 °F /  15.3 °C 58.2 °F /  14.6 °C 29.84in /  1010.4hPa SSE 9.0mph /  14.5km/h 11.0mph /  17.7km/h 95% 0.00in /  0mm
21:06 59.7 °F /  15.4 °C 58.3 °F /  14.6 °C 29.83in /  1010hPa SE 11.0mph /  17.7km/h 11.0mph /  17.7km/h 95% 0.00in /  0mm
21:11 59.9 °F /  15.5 °C 58.5 °F /  14.7 °C 29.83in /  1010hPa SE 8.0mph /  12.9km/h 12.0mph /  19.3km/h 95% 0.00in /  0mm
21:16 60.0 °F /  15.6 °C 58.6 °F /  14.8 °C 29.83in /  1010hPa SSE 8.0mph /  12.9km/h 12.0mph /  19.3km/h 95% 0.00in /  0mm
21:21 60.1 °F /  15.6 °C 58.7 °F /  14.8 °C 29.83in /  1010hPa SE 7.0mph /  11.3km/h 13.0mph /  20.9km/h 95% 0.00in /  0mm
21:26 60.2 °F /  15.7 °C 58.8 °F /  14.9 °C 29.83in /  1010hPa SSE 7.0mph /  11.3km/h 10.0mph /  16.1km/h 95% 0.00in /  0mm
21:31 60.3 °F /  15.7 °C 58.9 °F /  14.9 °C 29.83in /  1010hPa SE 10.0mph /  16.1km/h 13.0mph /  20.9km/h 95% 0.00in /  0mm
21:36 60.3 °F /  15.7 °C 58.9 °F /  14.9 °C 29.83in /  1010hPa SE 6.0mph /  9.7km/h 11.0mph /  17.7km/h 95% 0.00in /  0mm
21:41 60.4 °F /  15.8 °C 59.0 °F /  15 °C 29.83in /  1010hPa SE 7.0mph /  11.3km/h 13.0mph /  20.9km/h 95% 0.00in /  0mm
21:46 60.5 °F /  15.8 °C 59.1 °F /  15.1 °C 29.83in /  1010hPa SE 9.0mph /  14.5km/h 13.0mph /  20.9km/h 95% 0.00in /  0mm
21:51 60.6 °F /  15.9 °C 59.2 °F /  15.1 °C 29.83in /  1010hPa SE 11.0mph /  17.7km/h 11.0mph /  17.7km/h 95% 0.00in /  0mm
21:56 60.7 °F /  15.9 °C 59.3 °F /  15.2 °C 29.83in /  1010hPa SE 13.0mph /  20.9km/h 14.0mph /  22.5km/h 95% 0.00in /  0mm
22:01 60.9 °F /  16.1 °C 59.5 °F /  15.3 °C 29.82in /  1009.7hPa SE 8.0mph /  12.9km/h 12.0mph /  19.3km/h 95% 0.00in /  0mm
22:06 61.0 °F /  16.1 °C 59.6 °F /  15.3 °C 29.82in /  1009.7hPa SSE 8.0mph /  12.9km/h 14.0mph /  22.5km/h 95% 0.00in /  0mm
22:11 61.1 °F /  16.2 °C 59.7 °F /  15.4 °C 29.82in /  1009.7hPa SE 6.0mph /  9.7km/h 12.0mph /  19.3km/h 95% 0.00in /  0mm
22:16 61.1 °F /  16.2 °C 59.7 °F /  15.4 °C 29.82in /  1009.7hPa ESE 9.0mph /  14.5km/h 13.0mph /  20.9km/h 95% 0.00in /  0mm
22:21 61.3 °F /  16.3 °C 59.9 °F /  15.5 °C 29.82in /  1009.7hPa SE 10.0mph /  16.1km/h 13.0mph /  20.9km/h 95% 0.00in /  0mm
22:26 61.4 °F /  16.3 °C 60.0 °F /  15.6 °C 29.82in /  1009.7hPa South 7.0mph /  11.3km/h 11.0mph /  17.7km/h 95% 0.00in /  0mm
22:31 61.5 °F /  16.4 °C 60.1 °F /  15.6 °C 29.82in /  1009.7hPa SSE 7.0mph /  11.3km/h 16.0mph /  25.7km/h 95% 0.00in /  0mm
22:36 61.6 °F /  16.4 °C 60.2 °F /  15.7 °C 29.82in /  1009.7hPa SSE 8.0mph /  12.9km/h 14.0mph /  22.5km/h 95% 0.00in /  0mm
22:41 61.6 °F /  16.4 °C 60.2 °F /  15.7 °C 29.82in /  1009.7hPa SSW 10.0mph /  16.1km/h 13.0mph /  20.9km/h 95% 0.00in /  0mm
22:46 61.7 °F /  16.5 °C 60.3 °F /  15.7 °C 29.82in /  1009.7hPa SE 6.0mph /  9.7km/h 12.0mph /  19.3km/h 95% 0.00in /  0mm
22:51 61.7 °F /  16.5 °C 60.3 °F /  15.7 °C 29.82in /  1009.7hPa SSE 7.0mph /  11.3km/h 11.0mph /  17.7km/h 95% 0.00in /  0mm
22:56 61.8 °F /  16.6 °C 60.4 °F /  15.8 °C 29.82in /  1009.7hPa SSE 9.0mph /  14.5km/h 14.0mph /  22.5km/h 95% 0.00in /  0mm
23:01 61.8 °F /  16.6 °C 60.4 °F /  15.8 °C 29.82in /  1009.7hPa South 6.0mph /  9.7km/h 10.0mph /  16.1km/h 95% 0.00in /  0mm
23:06 61.9 °F /  16.6 °C 60.5 °F /  15.8 °C 29.82in /  1009.7hPa SSE 5.0mph /  8km/h 8.0mph /  12.9km/h 95% 0.00in /  0mm
23:11 61.9 °F /  16.6 °C 60.5 °F /  15.8 °C 29.83in /  1010hPa South 3.0mph /  4.8km/h 10.0mph /  16.1km/h 95% 0.00in /  0mm
23:16 61.9 °F /  16.6 °C 60.5 °F /  15.8 °C 29.82in /  1009.7hPa South 4.0mph /  6.4km/h 9.0mph /  14.5km/h 95% 0.00in /  0mm
23:21 62.0 °F /  16.7 °C 60.6 °F /  15.9 °C 29.82in /  1009.7hPa SSE 6.0mph /  9.7km/h 9.0mph /  14.5km/h 95% 0.00in /  0mm
23:27 62.0 °F /  16.7 °C 60.6 °F /  15.9 °C 29.82in /  1009.7hPa SW 7.0mph /  11.3km/h 11.0mph /  17.7km/h 95% 0.00in /  0mm
23:32 62.0 °F /  16.7 °C 60.6 °F /  15.9 °C 29.82in /  1009.7hPa SSE 4.0mph /  6.4km/h 8.0mph /  12.9km/h 95% 0.00in /  0mm
23:37 62.1 °F /  16.7 °C 60.7 °F /  15.9 °C 29.82in /  1009.7hPa SSW 6.0mph /  9.7km/h 9.0mph /  14.5km/h 95% 0.00in /  0mm
23:42 62.2 °F /  16.8 °C 60.8 °F /  16 °C 29.82in /  1009.7hPa South 3.0mph /  4.8km/h 8.0mph /  12.9km/h 95% 0.00in /  0mm
23:47 62.3 °F /  16.8 °C 60.8 °F /  16 °C 29.82in /  1009.7hPa SW 6.0mph /  9.7km/h 9.0mph /  14.5km/h 95% 0.00in /  0mm
23:52 62.3 °F /  16.8 °C 60.8 °F /  16 °C 29.83in /  1010hPa SSW 6.0mph /  9.7km/h 9.0mph /  14.5km/h 95% 0.00in /  0mm
23:57 62.4 °F /  16.9 °C 61.0 °F /  16.1 °C 29.82in /  1009.7hPa SSW 7.0mph /  11.3km/h 11.0mph /  17.7km/h 95% 0.00in /  0mm
Compliments of Weather Underground